CheckWX is a tool to help pilots better visualize weather data.  It is not intended as a substitute for an official pre-flight weather briefing.

09:25:06 UTC

KMDT METAR
Harrisburg International Airport
Harrisburg, Pennsylvania, USA
Current

29 mins ago

KMDT 190856Z 32012KT 10SM OVC100 06/M03 A3016 RMK AO2 SLP215 T00561028 53020
Observed
Feb-19 @ 08:56 UTC
Wind
  • 320° at 12 KTS
Visibility
10 SM
Flight Rules
VFR
Cloud Levels
  • Overcast at 10,000' AGL
Temperature
C / 43°F
Dewpoint
-3°C / 27°F
Humidity
53%
Altimeter
30.16" Hg
Pressure
1021.32 hPa
Previous

1 hour ago

KMDT 190756Z 33012KT 10SM OVC100 06/M02 A3014 RMK AO2 SLP209 T00611017
Observed
Feb-19 @ 07:56 UTC
Wind
  • 330° at 12 KTS
Visibility
10 SM
Flight Rules
VFR
Cloud Levels
  • Overcast at 10,000' AGL
Temperature
C / 43°F
Dewpoint
-2°C / 28°F
Humidity
57%
Altimeter
30.14" Hg
Pressure
1020.62 hPa
Previous

2 hours ago

KMDT 190656Z 33016KT 10SM OVC100 07/00 A3012 RMK AO2 SLP200 T00670000
Observed
Feb-19 @ 06:56 UTC
Wind
  • 330° at 16 KTS
Visibility
10 SM
Flight Rules
VFR
Cloud Levels
  • Overcast at 10,000' AGL
Temperature
C / 45°F
Dewpoint
C / 32°F
Humidity
61%
Altimeter
30.12" Hg
Pressure
1020.02 hPa